South Harpswell, Maine
Current Conditions -  °F | °C
As of 1:53 PM on Saturday 20 Dec 2014 (Local Time) from KIWI Reporting Station
Clear Clear  
Wind Chill: 29°   Ceiling: Unl
Heat Index: 33°   Visibility: 10mi
Dew Point: 20°   Wind: 5mph
Humidity: 59%   Direction: NA
Pressure: 30.3"   Gusts: NA
Location:  43.7958°N, 69.9869°W
Report Text: KIWI 201853Z AUTO VRB04KT 10SM CLR 01/M07 A3030 RMK AO2 SLP262 T00061067
Loading
Personal Weather Stations






























Interactive Weather Map New forecast layout! Learn more

10-Day Weather Forecast

Advertisements
Track Severe Weather on mobile